sensor_id;sensor_type;location;lat;lon;timestamp;P1;durP1;ratioP1;P2;durP2;ratioP2
15281;SDS011;7742;44.320;19.820;2022-12-01T00:02:11;18.43;;;17.33;;
15281;SDS011;7742;44.320;19.820;2022-12-01T00:04:39;18.23;;;17.03;;
15281;SDS011;7742;44.320;19.820;2022-12-01T00:07:06;17.73;;;16.53;;
15281;SDS011;7742;44.320;19.820;2022-12-01T00:09:33;19.07;;;17.90;;
15281;SDS011;7742;44.320;19.820;2022-12-01T00:12:18;18.80;;;17.50;;
15281;SDS011;7742;44.320;19.820;2022-12-01T00:14:46;18.47;;;17.27;;
15281;SDS011;7742;44.320;19.820;2022-12-01T00:17:19;17.70;;;16.50;;
15281;SDS011;7742;44.320;19.820;2022-12-01T00:19:46;17.87;;;16.67;;
15281;SDS011;7742;44.320;19.820;2022-12-01T00:22:13;17.80;;;16.60;;
15281;SDS011;7742;44.320;19.820;2022-12-01T00:24:40;18.27;;;17.00;;
15281;SDS011;7742;44.320;19.820;2022-12-01T00:27:08;17.87;;;16.67;;
15281;SDS011;7742;44.320;19.820;2022-12-01T00:29:35;17.70;;;16.50;;
15281;SDS011;7742;44.320;19.820;2022-12-01T00:32:04;17.37;;;16.17;;
15281;SDS011;7742;44.320;19.820;2022-12-01T00:34:32;17.70;;;16.60;;
15281;SDS011;7742;44.320;19.820;2022-12-01T00:36:59;17.13;;;16.07;;
15281;SDS011;7742;44.320;19.820;2022-12-01T00:39:26;17.13;;;16.23;;
15281;SDS011;7742;44.320;19.820;2022-12-01T00:41:54;17.03;;;15.97;;
15281;SDS011;7742;44.320;19.820;2022-12-01T00:44:22;18.07;;;16.87;;
15281;SDS011;7742;44.320;19.820;2022-12-01T00:46:49;17.63;;;16.53;;
15281;SDS011;7742;44.320;19.820;2022-12-01T00:49:18;16.77;;;15.67;;
15281;SDS011;7742;44.320;19.820;2022-12-01T00:51:45;17.47;;;16.43;;
15281;SDS011;7742;44.320;19.820;2022-12-01T00:54:13;18.07;;;16.77;;
15281;SDS011;7742;44.320;19.820;2022-12-01T00:56:40;18.33;;;17.03;;
15281;SDS011;7742;44.320;19.820;2022-12-01T00:59:10;17.97;;;16.87;;
15281;SDS011;7742;44.320;19.820;2022-12-01T01:01:38;17.87;;;16.77;;
15281;SDS011;7742;44.320;19.820;2022-12-01T01:04:05;17.83;;;16.73;;
15281;SDS011;7742;44.320;19.820;2022-12-01T01:06:34;18.00;;;16.70;;
15281;SDS011;7742;44.320;19.820;2022-12-01T01:09:01;18.43;;;17.30;;
15281;SDS011;7742;44.320;19.820;2022-12-01T01:11:28;18.50;;;17.40;;
15281;SDS011;7742;44.320;19.820;2022-12-01T01:13:57;19.20;;;18.00;;
15281;SDS011;7742;44.320;19.820;2022-12-01T01:16:25;19.30;;;18.00;;
15281;SDS011;7742;44.320;19.820;2022-12-01T01:19:26;19.20;;;17.90;;
15281;SDS011;7742;44.320;19.820;2022-12-01T01:21:56;18.73;;;17.37;;
15281;SDS011;7742;44.320;19.820;2022-12-01T01:24:23;18.30;;;17.10;;
15281;SDS011;7742;44.320;19.820;2022-12-01T01:26:50;17.37;;;16.23;;
15281;SDS011;7742;44.320;19.820;2022-12-01T01:29:19;17.40;;;16.37;;
15281;SDS011;7742;44.320;19.820;2022-12-01T01:31:48;17.37;;;16.27;;
15281;SDS011;7742;44.320;19.820;2022-12-01T01:34:15;17.43;;;16.30;;
15281;SDS011;7742;44.320;19.820;2022-12-01T01:36:47;16.40;;;15.30;;
15281;SDS011;7742;44.320;19.820;2022-12-01T01:39:15;16.40;;;15.33;;
15281;SDS011;7742;44.320;19.820;2022-12-01T01:41:48;16.93;;;15.83;;
15281;SDS011;7742;44.320;19.820;2022-12-01T01:47:15;16.87;;;15.87;;
15281;SDS011;7742;44.320;19.820;2022-12-01T01:49:45;16.73;;;15.70;;
15281;SDS011;7742;44.320;19.820;2022-12-01T01:52:18;17.60;;;16.60;;
15281;SDS011;7742;44.320;19.820;2022-12-01T01:54:52;16.90;;;15.90;;
15281;SDS011;7742;44.320;19.820;2022-12-01T01:57:22;15.73;;;14.83;;
15281;SDS011;7742;44.320;19.820;2022-12-01T01:59:51;17.03;;;16.03;;
15281;SDS011;7742;44.320;19.820;2022-12-01T02:02:21;16.40;;;15.50;;
15281;SDS011;7742;44.320;19.820;2022-12-01T02:04:52;16.40;;;15.50;;
15281;SDS011;7742;44.320;19.820;2022-12-01T02:07:49;16.57;;;15.67;;
15281;SDS011;7742;44.320;19.820;2022-12-01T02:10:49;16.67;;;15.60;;
15281;SDS011;7742;44.320;19.820;2022-12-01T02:13:30;16.07;;;15.17;;
15281;SDS011;7742;44.320;19.820;2022-12-01T02:16:02;16.23;;;15.30;;
15281;SDS011;7742;44.320;19.820;2022-12-01T02:18:34;16.43;;;15.53;;
15281;SDS011;7742;44.320;19.820;2022-12-01T02:27:27;15.93;;;15.03;;
15281;SDS011;7742;44.320;19.820;2022-12-01T02:36:03;17.13;;;16.13;;
15281;SDS011;7742;44.320;19.820;2022-12-01T02:38:35;16.77;;;15.87;;
15281;SDS011;7742;44.320;19.820;2022-12-01T02:41:07;16.67;;;15.77;;
15281;SDS011;7742;44.320;19.820;2022-12-01T02:43:41;16.73;;;15.80;;
15281;SDS011;7742;44.320;19.820;2022-12-01T02:46:26;16.53;;;15.53;;
15281;SDS011;7742;44.320;19.820;2022-12-01T02:49:12;16.53;;;15.63;;
15281;SDS011;7742;44.320;19.820;2022-12-01T02:51:53;16.07;;;15.20;;
15281;SDS011;7742;44.320;19.820;2022-12-01T02:54:35;16.50;;;15.50;;
15281;SDS011;7742;44.320;19.820;2022-12-01T02:57:05;16.00;;;15.03;;
15281;SDS011;7742;44.320;19.820;2022-12-01T02:59:52;16.87;;;15.97;;
15281;SDS011;7742;44.320;19.820;2022-12-01T03:02:33;16.33;;;15.43;;
15281;SDS011;7742;44.320;19.820;2022-12-01T03:05:17;17.03;;;16.03;;
15281;SDS011;7742;44.320;19.820;2022-12-01T03:07:50;16.20;;;15.30;;
15281;SDS011;7742;44.320;19.820;2022-12-01T03:10:24;16.80;;;15.80;;
15281;SDS011;7742;44.320;19.820;2022-12-01T03:12:57;16.57;;;15.43;;
15281;SDS011;7742;44.320;19.820;2022-12-01T03:15:29;16.43;;;15.53;;
15281;SDS011;7742;44.320;19.820;2022-12-01T03:18:04;15.83;;;15.03;;
15281;SDS011;7742;44.320;19.820;2022-12-01T03:20:36;15.77;;;14.97;;
15281;SDS011;7742;44.320;19.820;2022-12-01T03:23:07;16.27;;;15.37;;
15281;SDS011;7742;44.320;19.820;2022-12-01T03:25:36;16.00;;;15.10;;
15281;SDS011;7742;44.320;19.820;2022-12-01T03:28:06;15.87;;;15.03;;
15281;SDS011;7742;44.320;19.820;2022-12-01T03:30:34;16.37;;;15.37;;
15281;SDS011;7742;44.320;19.820;2022-12-01T03:33:05;16.50;;;15.60;;
15281;SDS011;7742;44.320;19.820;2022-12-01T03:35:35;15.93;;;15.13;;
15281;SDS011;7742;44.320;19.820;2022-12-01T03:38:07;16.03;;;15.23;;
15281;SDS011;7742;44.320;19.820;2022-12-01T03:40:39;16.47;;;15.43;;
15281;SDS011;7742;44.320;19.820;2022-12-01T03:43:08;16.10;;;15.20;;
15281;SDS011;7742;44.320;19.820;2022-12-01T03:45:39;16.07;;;15.20;;
15281;SDS011;7742;44.320;19.820;2022-12-01T03:48:13;16.63;;;15.63;;
15281;SDS011;7742;44.320;19.820;2022-12-01T03:50:42;16.33;;;15.43;;
15281;SDS011;7742;44.320;19.820;2022-12-01T03:53:13;16.63;;;15.73;;
15281;SDS011;7742;44.320;19.820;2022-12-01T03:55:45;17.20;;;16.20;;
15281;SDS011;7742;44.320;19.820;2022-12-01T03:58:17;16.70;;;15.70;;
15281;SDS011;7742;44.320;19.820;2022-12-01T04:00:48;16.10;;;15.30;;
15281;SDS011;7742;44.320;19.820;2022-12-01T04:06:54;15.83;;;14.93;;
15281;SDS011;7742;44.320;19.820;2022-12-01T04:09:22;16.20;;;15.23;;
15281;SDS011;7742;44.320;19.820;2022-12-01T04:11:49;16.70;;;15.70;;
15281;SDS011;7742;44.320;19.820;2022-12-01T04:14:34;16.50;;;15.50;;
15281;SDS011;7742;44.320;19.820;2022-12-01T06:53:10;22.27;;;20.73;;
15281;SDS011;7742;44.320;19.820;2022-12-01T06:55:38;16.67;;;15.63;;
15281;SDS011;7742;44.320;19.820;2022-12-01T06:58:05;15.23;;;14.40;;
15281;SDS011;7742;44.320;19.820;2022-12-01T07:00:32;15.77;;;14.97;;
15281;SDS011;7742;44.320;19.820;2022-12-01T07:03:00;16.00;;;15.20;;
15281;SDS011;7742;44.320;19.820;2022-12-01T07:05:28;16.33;;;15.43;;
15281;SDS011;7742;44.320;19.820;2022-12-01T07:07:55;16.63;;;15.73;;
15281;SDS011;7742;44.320;19.820;2022-12-01T07:10:24;18.63;;;17.63;;
15281;SDS011;7742;44.320;19.820;2022-12-01T07:12:52;18.53;;;17.53;;
15281;SDS011;7742;44.320;19.820;2022-12-01T07:15:22;16.70;;;15.70;;
15281;SDS011;7742;44.320;19.820;2022-12-01T07:17:49;20.23;;;19.33;;
15281;SDS011;7742;44.320;19.820;2022-12-01T07:20:17;16.03;;;15.20;;
15281;SDS011;7742;44.320;19.820;2022-12-01T07:22:45;15.43;;;14.63;;
15281;SDS011;7742;44.320;19.820;2022-12-01T07:25:12;15.63;;;14.83;;
15281;SDS011;7742;44.320;19.820;2022-12-01T07:27:43;15.47;;;14.67;;
15281;SDS011;7742;44.320;19.820;2022-12-01T07:30:10;14.23;;;13.53;;
15281;SDS011;7742;44.320;19.820;2022-12-01T07:32:38;15.07;;;14.23;;
15281;SDS011;7742;44.320;19.820;2022-12-01T07:35:06;16.90;;;16.10;;
15281;SDS011;7742;44.320;19.820;2022-12-01T07:37:34;15.17;;;14.37;;
15281;SDS011;7742;44.320;19.820;2022-12-01T07:42:51;15.53;;;14.73;;
15281;SDS011;7742;44.320;19.820;2022-12-01T07:45:19;15.63;;;14.83;;
15281;SDS011;7742;44.320;19.820;2022-12-01T07:47:46;15.57;;;14.83;;
15281;SDS011;7742;44.320;19.820;2022-12-01T07:50:14;15.70;;;14.90;;
15281;SDS011;7742;44.320;19.820;2022-12-01T07:52:41;19.00;;;18.20;;
15281;SDS011;7742;44.320;19.820;2022-12-01T07:55:08;15.40;;;14.60;;
15281;SDS011;7742;44.320;19.820;2022-12-01T07:57:36;17.73;;;16.73;;
15281;SDS011;7742;44.320;19.820;2022-12-01T08:00:05;15.13;;;14.33;;
15281;SDS011;7742;44.320;19.820;2022-12-01T08:02:33;15.23;;;14.50;;
15281;SDS011;7742;44.320;19.820;2022-12-01T08:05:01;15.87;;;14.97;;
15281;SDS011;7742;44.320;19.820;2022-12-01T08:07:28;14.93;;;14.17;;
15281;SDS011;7742;44.320;19.820;2022-12-01T08:09:56;16.30;;;15.40;;
15281;SDS011;7742;44.320;19.820;2022-12-01T08:12:23;15.77;;;14.77;;
15281;SDS011;7742;44.320;19.820;2022-12-01T08:14:50;14.63;;;13.93;;
15281;SDS011;7742;44.320;19.820;2022-12-01T08:17:19;14.53;;;13.73;;
15281;SDS011;7742;44.320;19.820;2022-12-01T08:19:47;14.27;;;13.57;;
15281;SDS011;7742;44.320;19.820;2022-12-01T08:22:14;14.77;;;13.97;;
15281;SDS011;7742;44.320;19.820;2022-12-01T08:24:41;14.20;;;13.50;;
15281;SDS011;7742;44.320;19.820;2022-12-01T08:27:09;13.83;;;13.17;;
15281;SDS011;7742;44.320;19.820;2022-12-01T08:29:36;13.87;;;13.07;;
15281;SDS011;7742;44.320;19.820;2022-12-01T08:32:03;13.07;;;12.47;;
15281;SDS011;7742;44.320;19.820;2022-12-01T08:34:32;13.17;;;12.57;;
15281;SDS011;7742;44.320;19.820;2022-12-01T08:37:01;14.20;;;13.50;;
15281;SDS011;7742;44.320;19.820;2022-12-01T08:39:28;13.73;;;13.10;;
15281;SDS011;7742;44.320;19.820;2022-12-01T08:41:56;13.50;;;12.80;;
15281;SDS011;7742;44.320;19.820;2022-12-01T08:44:23;14.20;;;13.50;;
15281;SDS011;7742;44.320;19.820;2022-12-01T08:46:50;13.17;;;12.57;;
15281;SDS011;7742;44.320;19.820;2022-12-01T08:49:18;13.27;;;12.67;;
15281;SDS011;7742;44.320;19.820;2022-12-01T08:51:48;12.90;;;12.30;;
15281;SDS011;7742;44.320;19.820;2022-12-01T08:54:15;13.50;;;12.90;;
15281;SDS011;7742;44.320;19.820;2022-12-01T08:56:43;13.00;;;12.40;;
15281;SDS011;7742;44.320;19.820;2022-12-01T08:59:11;13.33;;;12.73;;
15281;SDS011;7742;44.320;19.820;2022-12-01T09:01:38;13.67;;;12.97;;
15281;SDS011;7742;44.320;19.820;2022-12-01T09:04:16;13.87;;;13.17;;
15281;SDS011;7742;44.320;19.820;2022-12-01T09:06:44;13.60;;;13.00;;
15281;SDS011;7742;44.320;19.820;2022-12-01T09:09:14;13.80;;;13.20;;
15281;SDS011;7742;44.320;19.820;2022-12-01T09:11:42;13.63;;;12.93;;
15281;SDS011;7742;44.320;19.820;2022-12-01T09:14:10;13.33;;;12.73;;
15281;SDS011;7742;44.320;19.820;2022-12-01T09:16:38;13.73;;;13.10;;
15281;SDS011;7742;44.320;19.820;2022-12-01T09:19:05;13.07;;;12.50;;
15281;SDS011;7742;44.320;19.820;2022-12-01T09:21:33;13.30;;;12.70;;
15281;SDS011;7742;44.320;19.820;2022-12-01T09:24:02;14.30;;;13.40;;
15281;SDS011;7742;44.320;19.820;2022-12-01T09:26:33;12.93;;;12.40;;
15281;SDS011;7742;44.320;19.820;2022-12-01T09:29:00;13.70;;;13.00;;
15281;SDS011;7742;44.320;19.820;2022-12-01T09:31:29;12.00;;;11.50;;
15281;SDS011;7742;44.320;19.820;2022-12-01T09:33:57;12.30;;;11.70;;
15281;SDS011;7742;44.320;19.820;2022-12-01T09:36:25;13.73;;;13.07;;
15281;SDS011;7742;44.320;19.820;2022-12-01T09:38:53;14.07;;;13.43;;
15281;SDS011;7742;44.320;19.820;2022-12-01T09:41:21;13.97;;;13.37;;
15281;SDS011;7742;44.320;19.820;2022-12-01T09:43:53;13.77;;;13.07;;
15281;SDS011;7742;44.320;19.820;2022-12-01T09:46:24;13.30;;;12.70;;
15281;SDS011;7742;44.320;19.820;2022-12-01T09:48:54;13.80;;;13.20;;
15281;SDS011;7742;44.320;19.820;2022-12-01T09:51:24;13.30;;;12.70;;
15281;SDS011;7742;44.320;19.820;2022-12-01T09:53:52;13.33;;;12.73;;
15281;SDS011;7742;44.320;19.820;2022-12-01T09:56:21;14.67;;;13.77;;
15281;SDS011;7742;44.320;19.820;2022-12-01T09:58:52;14.60;;;13.90;;
15281;SDS011;7742;44.320;19.820;2022-12-01T10:01:24;14.57;;;13.77;;
15281;SDS011;7742;44.320;19.820;2022-12-01T10:03:56;14.17;;;13.57;;
15281;SDS011;7742;44.320;19.820;2022-12-01T10:06:28;14.60;;;13.90;;
15281;SDS011;7742;44.320;19.820;2022-12-01T10:09:02;15.23;;;14.43;;
15281;SDS011;7742;44.320;19.820;2022-12-01T10:11:34;14.83;;;13.93;;
15281;SDS011;7742;44.320;19.820;2022-12-01T10:14:05;15.17;;;14.27;;
15281;SDS011;7742;44.320;19.820;2022-12-01T10:16:36;15.73;;;14.93;;
15281;SDS011;7742;44.320;19.820;2022-12-01T10:19:10;16.37;;;15.27;;
15281;SDS011;7742;44.320;19.820;2022-12-01T10:21:43;15.97;;;15.03;;
15281;SDS011;7742;44.320;19.820;2022-12-01T10:24:21;16.33;;;15.40;;
15281;SDS011;7742;44.320;19.820;2022-12-01T10:26:57;15.67;;;14.70;;
15281;SDS011;7742;44.320;19.820;2022-12-01T10:29:30;16.13;;;15.33;;
15281;SDS011;7742;44.320;19.820;2022-12-01T10:32:04;16.13;;;15.13;;
15281;SDS011;7742;44.320;19.820;2022-12-01T10:34:40;16.20;;;15.20;;
15281;SDS011;7742;44.320;19.820;2022-12-01T10:37:12;19.33;;;18.03;;
15281;SDS011;7742;44.320;19.820;2022-12-01T10:39:42;17.60;;;16.50;;
15281;SDS011;7742;44.320;19.820;2022-12-01T10:42:12;16.20;;;15.30;;
15281;SDS011;7742;44.320;19.820;2022-12-01T10:44:44;17.33;;;16.17;;
15281;SDS011;7742;44.320;19.820;2022-12-01T10:47:16;22.33;;;20.50;;
15281;SDS011;7742;44.320;19.820;2022-12-01T10:49:45;17.63;;;16.30;;
15281;SDS011;7742;44.320;19.820;2022-12-01T10:52:26;17.53;;;16.43;;
15281;SDS011;7742;44.320;19.820;2022-12-01T10:54:57;20.67;;;19.07;;
15281;SDS011;7742;44.320;19.820;2022-12-01T10:57:25;19.23;;;17.83;;
15281;SDS011;7742;44.320;19.820;2022-12-01T10:59:55;17.80;;;16.57;;
15281;SDS011;7742;44.320;19.820;2022-12-01T11:02:25;18.10;;;16.87;;
15281;SDS011;7742;44.320;19.820;2022-12-01T11:04:54;17.97;;;16.77;;
15281;SDS011;7742;44.320;19.820;2022-12-01T11:07:24;17.13;;;16.03;;
15281;SDS011;7742;44.320;19.820;2022-12-01T11:10:05;16.80;;;15.70;;
15281;SDS011;7742;44.320;19.820;2022-12-01T11:12:40;17.30;;;16.10;;
15281;SDS011;7742;44.320;19.820;2022-12-01T11:15:17;18.33;;;17.13;;
15281;SDS011;7742;44.320;19.820;2022-12-01T11:17:46;17.43;;;16.33;;
15281;SDS011;7742;44.320;19.820;2022-12-01T11:20:23;16.77;;;15.67;;
15281;SDS011;7742;44.320;19.820;2022-12-01T11:22:52;17.53;;;16.53;;
15281;SDS011;7742;44.320;19.820;2022-12-01T11:25:54;18.13;;;17.00;;
15281;SDS011;7742;44.320;19.820;2022-12-01T11:28:29;18.27;;;17.07;;
15281;SDS011;7742;44.320;19.820;2022-12-01T11:31:04;18.20;;;17.00;;
15281;SDS011;7742;44.320;19.820;2022-12-01T11:33:36;18.43;;;17.13;;
15281;SDS011;7742;44.320;19.820;2022-12-01T11:36:09;19.27;;;17.93;;
15281;SDS011;7742;44.320;19.820;2022-12-01T11:38:36;19.07;;;17.60;;
15281;SDS011;7742;44.320;19.820;2022-12-01T11:41:04;17.33;;;16.23;;
15281;SDS011;7742;44.320;19.820;2022-12-01T11:43:32;18.27;;;16.97;;
15281;SDS011;7742;44.320;19.820;2022-12-01T11:46:01;18.37;;;17.10;;
15281;SDS011;7742;44.320;19.820;2022-12-01T11:48:31;18.27;;;16.97;;
15281;SDS011;7742;44.320;19.820;2022-12-01T11:51:02;18.33;;;17.13;;
15281;SDS011;7742;44.320;19.820;2022-12-01T11:53:32;18.40;;;17.30;;
15281;SDS011;7742;44.320;19.820;2022-12-01T11:58:55;17.90;;;16.77;;
15281;SDS011;7742;44.320;19.820;2022-12-01T12:01:31;17.23;;;15.93;;
15281;SDS011;7742;44.320;19.820;2022-12-01T12:04:09;18.37;;;17.07;;
15281;SDS011;7742;44.320;19.820;2022-12-01T12:06:47;18.20;;;17.00;;
15281;SDS011;7742;44.320;19.820;2022-12-01T12:09:22;18.30;;;17.20;;
15281;SDS011;7742;44.320;19.820;2022-12-01T12:12:00;16.67;;;15.57;;
15281;SDS011;7742;44.320;19.820;2022-12-01T12:14:44;16.53;;;15.63;;
15281;SDS011;7742;44.320;19.820;2022-12-01T12:17:23;18.07;;;16.77;;
15281;SDS011;7742;44.320;19.820;2022-12-01T12:20:01;16.80;;;15.83;;
15281;SDS011;7742;44.320;19.820;2022-12-01T12:22:43;17.17;;;16.07;;
15281;SDS011;7742;44.320;19.820;2022-12-01T12:25:19;16.37;;;15.47;;
15281;SDS011;7742;44.320;19.820;2022-12-01T12:27:53;16.77;;;15.67;;
15281;SDS011;7742;44.320;19.820;2022-12-01T12:30:28;17.43;;;16.30;;
15281;SDS011;7742;44.320;19.820;2022-12-01T12:36:03;16.13;;;15.13;;
15281;SDS011;7742;44.320;19.820;2022-12-01T12:38:40;16.53;;;15.60;;
15281;SDS011;7742;44.320;19.820;2022-12-01T12:41:20;15.73;;;14.70;;
15281;SDS011;7742;44.320;19.820;2022-12-01T12:43:56;16.07;;;15.17;;
15281;SDS011;7742;44.320;19.820;2022-12-01T12:46:32;16.00;;;15.10;;
15281;SDS011;7742;44.320;19.820;2022-12-01T12:49:09;16.53;;;15.53;;
15281;SDS011;7742;44.320;19.820;2022-12-01T12:51:45;16.60;;;15.60;;
15281;SDS011;7742;44.320;19.820;2022-12-01T12:54:17;15.87;;;14.97;;
15281;SDS011;7742;44.320;19.820;2022-12-01T12:56:49;16.30;;;15.40;;
15281;SDS011;7742;44.320;19.820;2022-12-01T12:59:20;15.33;;;14.53;;
15281;SDS011;7742;44.320;19.820;2022-12-01T13:01:52;17.40;;;16.27;;
15281;SDS011;7742;44.320;19.820;2022-12-01T13:04:25;16.80;;;15.80;;
15281;SDS011;7742;44.320;19.820;2022-12-01T13:06:59;16.00;;;15.07;;
15281;SDS011;7742;44.320;19.820;2022-12-01T13:09:30;16.50;;;15.50;;
15281;SDS011;7742;44.320;19.820;2022-12-01T13:12:01;16.77;;;15.87;;
15281;SDS011;7742;44.320;19.820;2022-12-01T13:14:32;16.07;;;15.10;;
15281;SDS011;7742;44.320;19.820;2022-12-01T13:17:11;15.47;;;14.67;;
15281;SDS011;7742;44.320;19.820;2022-12-01T13:19:43;22.27;;;20.57;;
15281;SDS011;7742;44.320;19.820;2022-12-01T13:22:12;16.97;;;15.90;;
15281;SDS011;7742;44.320;19.820;2022-12-01T13:24:40;17.10;;;16.10;;
15281;SDS011;7742;44.320;19.820;2022-12-01T13:27:11;17.40;;;16.40;;
15281;SDS011;7742;44.320;19.820;2022-12-01T13:29:43;26.80;;;24.10;;
15281;SDS011;7742;44.320;19.820;2022-12-01T13:32:23;17.60;;;16.40;;
15281;SDS011;7742;44.320;19.820;2022-12-01T13:34:54;20.10;;;18.67;;
15281;SDS011;7742;44.320;19.820;2022-12-01T13:37:25;16.33;;;15.43;;
15281;SDS011;7742;44.320;19.820;2022-12-01T13:39:53;17.00;;;16.00;;
15281;SDS011;7742;44.320;19.820;2022-12-01T13:42:21;17.80;;;16.70;;
15281;SDS011;7742;44.320;19.820;2022-12-01T13:44:50;16.33;;;15.43;;
15281;SDS011;7742;44.320;19.820;2022-12-01T13:53:29;16.93;;;15.80;;
15281;SDS011;7742;44.320;19.820;2022-12-01T13:55:59;16.40;;;15.40;;
15281;SDS011;7742;44.320;19.820;2022-12-01T13:58:42;16.83;;;15.83;;
15281;SDS011;7742;44.320;19.820;2022-12-01T14:04:21;18.27;;;16.93;;
15281;SDS011;7742;44.320;19.820;2022-12-01T14:09:42;16.57;;;15.57;;
15281;SDS011;7742;44.320;19.820;2022-12-01T14:12:13;17.30;;;16.20;;
15281;SDS011;7742;44.320;19.820;2022-12-01T14:14:43;16.80;;;15.90;;
15281;SDS011;7742;44.320;19.820;2022-12-01T14:17:26;17.00;;;15.90;;
15281;SDS011;7742;44.320;19.820;2022-12-01T14:19:55;17.80;;;16.47;;
15281;SDS011;7742;44.320;19.820;2022-12-01T14:22:35;16.60;;;15.50;;
15281;SDS011;7742;44.320;19.820;2022-12-01T14:25:04;17.60;;;16.60;;
15281;SDS011;7742;44.320;19.820;2022-12-01T14:27:33;17.40;;;16.50;;
15281;SDS011;7742;44.320;19.820;2022-12-01T14:41:50;17.23;;;16.17;;
15281;SDS011;7742;44.320;19.820;2022-12-01T14:44:20;17.73;;;16.43;;
15281;SDS011;7742;44.320;19.820;2022-12-01T14:46:51;17.40;;;16.23;;
15281;SDS011;7742;44.320;19.820;2022-12-01T14:49:21;17.33;;;16.17;;
15281;SDS011;7742;44.320;19.820;2022-12-01T14:51:51;17.00;;;16.00;;
15281;SDS011;7742;44.320;19.820;2022-12-01T14:54:23;17.60;;;16.60;;
15281;SDS011;7742;44.320;19.820;2022-12-01T14:56:52;17.13;;;16.13;;
15281;SDS011;7742;44.320;19.820;2022-12-01T14:59:22;17.00;;;15.93;;
15281;SDS011;7742;44.320;19.820;2022-12-01T15:01:51;17.77;;;16.67;;
15281;SDS011;7742;44.320;19.820;2022-12-01T15:04:21;18.63;;;17.43;;
15281;SDS011;7742;44.320;19.820;2022-12-01T15:06:51;17.87;;;16.80;;
15281;SDS011;7742;44.320;19.820;2022-12-01T15:09:20;19.20;;;18.03;;
15281;SDS011;7742;44.320;19.820;2022-12-01T15:11:50;18.90;;;17.70;;
15281;SDS011;7742;44.320;19.820;2022-12-01T15:14:20;18.23;;;16.93;;
15281;SDS011;7742;44.320;19.820;2022-12-01T15:16:54;18.70;;;17.40;;
15281;SDS011;7742;44.320;19.820;2022-12-01T15:19:22;21.73;;;20.23;;
15281;SDS011;7742;44.320;19.820;2022-12-01T15:21:54;21.00;;;19.37;;
15281;SDS011;7742;44.320;19.820;2022-12-01T15:24:22;19.33;;;17.93;;
15281;SDS011;7742;44.320;19.820;2022-12-01T15:26:52;20.30;;;18.90;;
15281;SDS011;7742;44.320;19.820;2022-12-01T15:29:21;21.43;;;19.70;;
15281;SDS011;7742;44.320;19.820;2022-12-01T15:31:50;22.93;;;21.03;;
15281;SDS011;7742;44.320;19.820;2022-12-01T15:34:21;21.00;;;19.53;;
15281;SDS011;7742;44.320;19.820;2022-12-01T15:36:50;24.07;;;22.27;;
15281;SDS011;7742;44.320;19.820;2022-12-01T15:39:19;19.47;;;18.23;;
15281;SDS011;7742;44.320;19.820;2022-12-01T15:41:49;23.57;;;21.57;;
15281;SDS011;7742;44.320;19.820;2022-12-01T15:44:25;21.47;;;19.87;;
15281;SDS011;7742;44.320;19.820;2022-12-01T15:46:54;20.97;;;19.37;;
15281;SDS011;7742;44.320;19.820;2022-12-01T15:55:47;21.23;;;19.63;;
15281;SDS011;7742;44.320;19.820;2022-12-01T15:58:18;19.40;;;17.97;;
15281;SDS011;7742;44.320;19.820;2022-12-01T16:00:51;21.17;;;19.47;;
15281;SDS011;7742;44.320;19.820;2022-12-01T16:03:21;23.17;;;21.37;;
15281;SDS011;7742;44.320;19.820;2022-12-01T16:05:48;29.23;;;26.60;;
15281;SDS011;7742;44.320;19.820;2022-12-01T16:08:16;19.83;;;18.40;;
15281;SDS011;7742;44.320;19.820;2022-12-01T16:10:44;21.37;;;19.77;;
15281;SDS011;7742;44.320;19.820;2022-12-01T16:16:33;21.50;;;19.83;;
15281;SDS011;7742;44.320;19.820;2022-12-01T16:19:22;25.43;;;23.23;;
15281;SDS011;7742;44.320;19.820;2022-12-01T16:21:52;32.13;;;29.13;;
15281;SDS011;7742;44.320;19.820;2022-12-01T16:24:26;20.63;;;19.13;;
15281;SDS011;7742;44.320;19.820;2022-12-01T16:27:01;20.57;;;18.83;;
15281;SDS011;7742;44.320;19.820;2022-12-01T16:29:42;19.90;;;18.50;;
15281;SDS011;7742;44.320;19.820;2022-12-01T16:32:31;20.13;;;18.60;;
15281;SDS011;7742;44.320;19.820;2022-12-01T16:35:03;19.83;;;18.43;;
15281;SDS011;7742;44.320;19.820;2022-12-01T16:37:32;20.27;;;18.87;;
15281;SDS011;7742;44.320;19.820;2022-12-01T16:40:00;20.13;;;18.70;;
15281;SDS011;7742;44.320;19.820;2022-12-01T16:42:27;19.80;;;18.23;;
15281;SDS011;7742;44.320;19.820;2022-12-01T16:44:57;20.60;;;19.13;;
15281;SDS011;7742;44.320;19.820;2022-12-01T16:47:28;20.50;;;18.90;;
15281;SDS011;7742;44.320;19.820;2022-12-01T16:49:57;20.13;;;18.73;;
15281;SDS011;7742;44.320;19.820;2022-12-01T16:55:36;20.67;;;19.13;;
15281;SDS011;7742;44.320;19.820;2022-12-01T16:58:05;20.87;;;19.43;;
15281;SDS011;7742;44.320;19.820;2022-12-01T17:03:55;21.83;;;20.33;;
15281;SDS011;7742;44.320;19.820;2022-12-01T17:06:22;21.03;;;19.43;;
15281;SDS011;7742;44.320;19.820;2022-12-01T17:08:50;21.27;;;19.67;;
15281;SDS011;7742;44.320;19.820;2022-12-01T17:11:19;20.73;;;19.27;;
15281;SDS011;7742;44.320;19.820;2022-12-01T17:13:47;21.43;;;19.90;;
15281;SDS011;7742;44.320;19.820;2022-12-01T17:16:14;21.47;;;19.87;;
15281;SDS011;7742;44.320;19.820;2022-12-01T17:19:02;21.60;;;19.90;;
15281;SDS011;7742;44.320;19.820;2022-12-01T17:21:43;19.77;;;18.40;;
15281;SDS011;7742;44.320;19.820;2022-12-01T17:27:14;20.87;;;19.17;;
15281;SDS011;7742;44.320;19.820;2022-12-01T17:29:42;21.20;;;19.70;;
15281;SDS011;7742;44.320;19.820;2022-12-01T17:32:09;21.63;;;20.13;;
15281;SDS011;7742;44.320;19.820;2022-12-01T17:34:39;20.87;;;19.47;;
15281;SDS011;7742;44.320;19.820;2022-12-01T17:37:06;21.63;;;20.10;;
15281;SDS011;7742;44.320;19.820;2022-12-01T17:39:34;21.67;;;20.17;;
15281;SDS011;7742;44.320;19.820;2022-12-01T17:42:01;20.33;;;18.93;;
15281;SDS011;7742;44.320;19.820;2022-12-01T17:44:28;20.83;;;19.27;;
15281;SDS011;7742;44.320;19.820;2022-12-01T17:46:56;20.83;;;19.43;;
15281;SDS011;7742;44.320;19.820;2022-12-01T17:49:23;20.93;;;19.53;;
15281;SDS011;7742;44.320;19.820;2022-12-01T17:51:52;19.97;;;18.50;;
15281;SDS011;7742;44.320;19.820;2022-12-01T17:54:32;21.33;;;19.73;;
15281;SDS011;7742;44.320;19.820;2022-12-01T17:57:14;21.23;;;19.60;;
15281;SDS011;7742;44.320;19.820;2022-12-01T17:59:50;21.67;;;20.23;;
15281;SDS011;7742;44.320;19.820;2022-12-01T18:02:17;22.03;;;20.43;;
15281;SDS011;7742;44.320;19.820;2022-12-01T18:04:45;21.80;;;20.20;;
15281;SDS011;7742;44.320;19.820;2022-12-01T18:07:18;22.70;;;21.10;;
15281;SDS011;7742;44.320;19.820;2022-12-01T18:09:46;22.53;;;20.90;;
15281;SDS011;7742;44.320;19.820;2022-12-01T18:12:13;22.57;;;20.97;;
15281;SDS011;7742;44.320;19.820;2022-12-01T18:14:41;22.63;;;21.03;;
15281;SDS011;7742;44.320;19.820;2022-12-01T18:17:09;22.53;;;20.83;;
15281;SDS011;7742;44.320;19.820;2022-12-01T18:19:37;23.87;;;21.90;;
15281;SDS011;7742;44.320;19.820;2022-12-01T18:28:45;23.97;;;22.17;;
15281;SDS011;7742;44.320;19.820;2022-12-01T18:31:12;26.83;;;24.53;;
15281;SDS011;7742;44.320;19.820;2022-12-01T18:33:41;24.30;;;22.37;;
15281;SDS011;7742;44.320;19.820;2022-12-01T18:36:10;24.70;;;22.63;;
15281;SDS011;7742;44.320;19.820;2022-12-01T18:38:53;24.27;;;22.33;;